Terminal Aerodrome Forecast
Issued by NWS

Current Version | Previous Version | Graphics & Text | Print | Product List | Glossary On
Versions: 1 2 3 4 5 6 7 8 9 10 11 12 13 14 15 16 17 18 19 20 21 22 23 24
000
FTUS41 KRLX 251100
TAFCKB
TAF
KCKB 251122Z 2512/2612 25008KT P6SM BKN035
     FM251900 26004KT P6SM BKN100
     FM252300 35004KT P6SM BKN050
     FM261100 03004KT P6SM OVC030=

USA.gov is the U.S. government's official web portal to all federal, state and local government web resources and services.